Time;durP1;ratioP1;P1;durP2;ratioP2;P2;SDS_P1;SDS_P2;PMS_P1;PMS_P2;Temp;Humidity;BMP_temperature;BMP_pressure;BME280_temperature;BME280_humidity;BME280_pressure;Samples;Min_cycle;Max_cycle;Signal;HPM_P1;HPM_P2
2024/03/11 00:00:09;;;;;;;;;;;;;;;19.43;30.96;100891.44;102512;1298;61410;-83
2024/03/11 00:02:38;;;;;;;;;;;;;;;19.43;31.02;100893.23;102412;1297;72554;-84
2024/03/11 00:05:04;;;;;;;;;;;;;;;19.43;31.05;100898.40;102458;1298;73456;-84
2024/03/11 00:07:33;;;;;;;;;;;;;;;19.43;31.02;100906.96;102639;1301;61781;-84
2024/03/11 00:10:00;;;;;;;;;;;;;;;19.43;30.99;100903.77;102614;1296;61340;-84
2024/03/11 00:12:29;;;;;;;;;;;;;;;19.43;30.88;100900.02;102509;1297;62236;-84
2024/03/11 00:14:58;;;;;;;;;;;;;;;19.43;30.98;100898.42;102501;1302;74488;-83
2024/03/11 00:17:24;;;;;;;;;;;;;;;19.42;30.93;100889.35;102477;1302;61403;-84
2024/03/11 00:19:50;;;;;;;;;;;;;;;19.43;30.95;100888.77;102595;1297;61444;-84
2024/03/11 00:22:16;;;;;;;;;;;;;;;19.42;30.88;100889.34;102496;1297;61408;-84
2024/03/11 00:24:43;;;;;;;;;;;;;;;19.42;30.93;100886.52;102508;1302;61322;-83
2024/03/11 00:27:09;;;;;;;;;;;;;;;19.42;30.99;100885.07;102474;1297;61386;-84
2024/03/11 00:29:37;;;;;;;;;;;;;;;19.43;31.03;100891.48;102570;1302;61342;-84
2024/03/11 00:32:03;;;;;;;;;;;;;;;19.42;30.90;100894.37;102535;1297;62425;-83
2024/03/11 00:34:29;;;;;;;;;;;;;;;19.42;30.84;100897.96;102469;1297;61357;-83
2024/03/11 00:37:04;;;;;;;;;;;;;;;19.41;30.97;100897.09;102587;1296;61325;-84
2024/03/11 00:39:30;;;;;;;;;;;;;;;19.42;30.96;100899.02;102455;1300;61418;-83
2024/03/11 00:41:58;;;;;;;;;;;;;;;19.41;31.06;100895.69;102455;1303;62579;-84
2024/03/11 00:44:24;;;;;;;;;;;;;;;19.41;31.03;100898.35;102373;1297;74674;-85
2024/03/11 00:46:53;;;;;;;;;;;;;;;19.41;31.00;100903.16;102491;1301;61409;-83
2024/03/11 00:49:19;;;;;;;;;;;;;;;19.41;31.08;100903.16;102599;1296;61437;-84
2024/03/11 00:51:55;;;;;;;;;;;;;;;19.41;31.04;100904.09;102464;1297;72514;-84
2024/03/11 00:54:24;;;;;;;;;;;;;;;19.41;31.03;100901.58;102512;1297;74453;-85
2024/03/11 00:56:51;;;;;;;;;;;;;;;19.41;31.05;100897.30;102541;1297;61409;-84
2024/03/11 00:59:18;;;;;;;;;;;;;;;19.41;31.08;100894.64;102585;1302;61309;-84
2024/03/11 01:01:44;;;;;;;;;;;;;;;19.40;31.14;100898.77;102516;1297;61870;-82
2024/03/11 01:04:09;;;;;;;;;;;;;;;19.40;31.01;100899.49;102474;1297;61421;-83
2024/03/11 01:06:38;;;;;;;;;;;;;;;19.40;31.01;100897.52;102552;1302;61462;-83
2024/03/11 01:09:07;;;;;;;;;;;;;;;19.40;31.13;100898.05;102355;1297;62369;-84
2024/03/11 01:11:32;;;;;;;;;;;;;;;19.40;31.11;100895.95;102422;1304;73731;-84
2024/03/11 01:13:58;;;;;;;;;;;;;;;19.40;30.90;100897.88;102570;1297;61338;-84
2024/03/11 01:16:33;;;;;;;;;;;;;;;19.40;31.01;100895.42;102598;1297;61423;-84
2024/03/11 01:19:01;;;;;;;;;;;;;;;19.40;31.09;100893.45;102525;1297;61323;-84
2024/03/11 01:21:27;;;;;;;;;;;;;;;19.40;30.97;100898.27;102585;1300;73424;-84
2024/03/11 01:23:53;;;;;;;;;;;;;;;19.39;31.13;100894.94;102437;1297;61528;-84
2024/03/11 01:26:24;;;;;;;;;;;;;;;19.39;31.17;100895.09;102435;1298;61453;-83
2024/03/11 01:28:50;;;;;;;;;;;;;;;19.39;31.09;100892.80;102559;1301;61406;-86
2024/03/11 01:31:15;;;;;;;;;;;;;;;19.39;31.12;100889.95;102567;1297;61436;-83
2024/03/11 01:33:41;;;;;;;;;;;;;;;19.38;31.15;100888.36;102414;1297;61421;-84
2024/03/11 01:36:08;;;;;;;;;;;;;;;19.39;31.03;100887.10;102528;1297;61457;-83
2024/03/11 01:38:34;;;;;;;;;;;;;;;19.38;31.14;100887.66;102452;1298;61407;-84
2024/03/11 01:41:05;;;;;;;;;;;;;;;19.38;31.22;100886.97;102431;1297;61341;-84
2024/03/11 01:43:31;;;;;;;;;;;;;;;19.38;31.04;100885.73;102514;1297;74353;-84
2024/03/11 01:46:00;;;;;;;;;;;;;;;19.37;31.05;100879.66;102517;1297;61433;-83
2024/03/11 01:48:32;;;;;;;;;;;;;;;19.38;31.14;100879.30;102428;1297;61401;-84
2024/03/11 01:50:57;;;;;;;;;;;;;;;19.37;31.17;100882.73;102406;1297;72604;-84
2024/03/11 01:53:24;;;;;;;;;;;;;;;19.37;31.22;100882.91;102224;1297;61484;-83
2024/03/11 01:55:53;;;;;;;;;;;;;;;19.37;31.06;100881.29;102571;1297;61225;-84
2024/03/11 01:58:19;;;;;;;;;;;;;;;19.37;31.05;100885.94;102372;1297;62419;-83
2024/03/11 02:00:46;;;;;;;;;;;;;;;19.36;31.20;100885.83;102477;1297;61416;-84
2024/03/11 02:03:15;;;;;;;;;;;;;;;19.36;30.97;100880.66;102445;1297;75669;-83
2024/03/11 02:05:41;;;;;;;;;;;;;;;19.36;31.13;100879.05;102548;1297;61364;-84
2024/03/11 02:08:07;;;;;;;;;;;;;;;19.36;31.00;100876.03;102418;1297;61520;-83
2024/03/11 02:10:35;;;;;;;;;;;;;;;19.35;31.09;100876.58;102190;1297;624574;-82
2024/03/11 02:13:01;;;;;;;;;;;;;;;19.36;31.14;100872.13;102472;1297;74509;-83
2024/03/11 02:15:27;;;;;;;;;;;;;;;19.36;31.18;100873.21;102455;1300;61359;-84
2024/03/11 02:17:54;;;;;;;;;;;;;;;19.34;31.06;100875.05;102544;1297;61427;-84
2024/03/11 02:20:21;;;;;;;;;;;;;;;19.35;31.07;100880.89;102500;1303;61326;-84
2024/03/11 02:22:49;;;;;;;;;;;;;;;19.35;31.13;100879.33;102434;1297;75488;-84
2024/03/11 02:25:15;;;;;;;;;;;;;;;19.35;31.11;100883.23;102517;1297;61392;-83
2024/03/11 02:27:41;;;;;;;;;;;;;;;19.35;31.13;100882.89;102491;1297;61481;-84
2024/03/11 02:30:07;;;;;;;;;;;;;;;19.34;31.28;100883.29;102579;1298;61392;-83
2024/03/11 02:32:35;;;;;;;;;;;;;;;19.34;31.06;100878.84;102464;1298;74320;-83
2024/03/11 02:35:01;;;;;;;;;;;;;;;19.34;31.22;100881.34;102442;1297;61409;-84
2024/03/11 02:37:27;;;;;;;;;;;;;;;19.33;31.08;100882.79;102589;1297;61431;-84
2024/03/11 02:39:53;;;;;;;;;;;;;;;19.33;31.14;100879.06;102560;1303;61318;-83
2024/03/11 02:42:19;;;;;;;;;;;;;;;19.33;31.14;100879.41;102456;1297;61376;-84
2024/03/11 02:44:45;;;;;;;;;;;;;;;19.33;31.10;100881.77;102535;1297;61406;-84
2024/03/11 02:47:10;;;;;;;;;;;;;;;19.33;31.05;100884.24;102327;1297;61433;-84
2024/03/11 02:49:39;;;;;;;;;;;;;;;19.32;31.09;100880.34;102387;1297;61399;-84
2024/03/11 02:52:13;;;;;;;;;;;;;;;19.32;31.12;100881.10;102512;1303;73616;-84
2024/03/11 02:54:42;;;;;;;;;;;;;;;19.32;31.06;100880.95;102383;1304;74244;-84
2024/03/11 02:57:08;;;;;;;;;;;;;;;19.32;31.25;100881.64;102498;1297;61355;-85
2024/03/11 02:59:40;;;;;;;;;;;;;;;19.32;31.18;100884.65;102348;1297;61492;-84
2024/03/11 03:02:08;;;;;;;;;;;;;;;19.32;31.13;100888.23;102538;1301;72587;-84
2024/03/11 03:04:39;;;;;;;;;;;;;;;19.31;31.17;100888.98;102562;1297;75629;-84
2024/03/11 03:07:09;;;;;;;;;;;;;;;19.31;31.14;100890.77;102340;1297;62588;-84
2024/03/11 03:09:36;;;;;;;;;;;;;;;19.31;31.15;100892.38;102520;1297;61319;-84
2024/03/11 03:12:03;;;;;;;;;;;;;;;19.31;31.07;100891.52;102431;1299;71378;-83
2024/03/11 03:14:30;;;;;;;;;;;;;;;19.31;31.20;100894.02;102465;1297;61788;-84
2024/03/11 03:16:57;;;;;;;;;;;;;;;19.30;31.22;100895.11;102379;1297;61355;-84
2024/03/11 03:19:22;;;;;;;;;;;;;;;19.31;31.20;100893.31;102506;1298;61434;-83
2024/03/11 03:21:51;;;;;;;;;;;;;;;19.30;31.24;100894.41;102564;1302;72341;-83
2024/03/11 03:24:16;;;;;;;;;;;;;;;19.30;31.07;100905.32;102379;1297;61516;-84
2024/03/11 03:26:45;;;;;;;;;;;;;;;19.30;31.24;100909.75;102381;1297;61369;-84
2024/03/11 03:29:11;;;;;;;;;;;;;;;19.30;31.25;100902.64;102506;1297;61328;-84
2024/03/11 03:31:37;;;;;;;;;;;;;;;19.30;31.25;100896.59;102584;1297;62540;-83
2024/03/11 03:34:04;;;;;;;;;;;;;;;19.30;31.18;100893.92;102492;1298;61371;-85
2024/03/11 03:36:35;;;;;;;;;;;;;;;19.29;31.20;100895.74;102625;1298;61300;-84
2024/03/11 03:39:01;;;;;;;;;;;;;;;19.29;31.27;100900.17;102594;1298;61345;-83
2024/03/11 03:41:27;;;;;;;;;;;;;;;19.29;31.31;100893.08;102617;1297;61294;-84
2024/03/11 03:43:53;;;;;;;;;;;;;;;19.29;31.20;100887.20;102597;1297;61383;-83
2024/03/11 03:46:20;;;;;;;;;;;;;;;19.28;31.28;100878.65;102618;1297;61433;-84
2024/03/11 03:48:48;;;;;;;;;;;;;;;19.28;31.16;100883.30;102448;1305;61377;-83
2024/03/11 03:51:18;;;;;;;;;;;;;;;19.28;31.26;100881.52;102723;1297;72422;-85
2024/03/11 03:53:46;;;;;;;;;;;;;;;19.28;31.30;100878.85;102111;1307;73418;-83
2024/03/11 03:56:12;;;;;;;;;;;;;;;19.29;31.15;100881.31;102190;1302;61364;-84
2024/03/11 03:58:44;;;;;;;;;;;;;;;19.28;31.16;100878.70;102143;1303;61999;-82
2024/03/11 04:01:10;;;;;;;;;;;;;;;19.28;31.18;100882.08;102087;1305;72525;-84
2024/03/11 04:03:36;;;;;;;;;;;;;;;19.28;31.18;100892.09;102112;1303;62275;-84
2024/03/11 04:06:05;;;;;;;;;;;;;;;19.27;31.36;100904.05;102196;1303;61305;-83
2024/03/11 04:08:31;;;;;;;;;;;;;;;19.27;31.36;100907.27;102212;1303;62258;-84
2024/03/11 04:10:56;;;;;;;;;;;;;;;19.26;31.20;100901.41;102161;1305;61443;-84
2024/03/11 04:13:22;;;;;;;;;;;;;;;19.27;31.28;100890.85;102121;1304;61412;-84
2024/03/11 04:15:52;;;;;;;;;;;;;;;19.26;31.28;100893.56;102142;1302;61432;-84
2024/03/11 04:18:18;;;;;;;;;;;;;;;19.26;31.22;100898.95;102263;1300;61420;-84
2024/03/11 04:20:44;;;;;;;;;;;;;;;19.26;31.22;100896.45;102257;1300;62544;-82
2024/03/11 04:23:12;;;;;;;;;;;;;;;19.25;31.29;100893.79;102645;1303;61397;-84
2024/03/11 04:25:37;;;;;;;;;;;;;;;19.25;31.24;100895.78;103571;1297;61497;-84
2024/03/11 04:28:05;;;;;;;;;;;;;;;19.24;31.24;100894.92;103510;1297;61409;-84
2024/03/11 04:30:31;;;;;;;;;;;;;;;19.23;31.31;100896.44;103605;1297;61473;-82
2024/03/11 04:32:58;;;;;;;;;;;;;;;19.23;31.36;100895.40;103731;1297;61307;-83
2024/03/11 04:35:26;;;;;;;;;;;;;;;19.24;31.32;100895.52;103502;1297;61469;-82
2024/03/11 04:37:53;;;;;;;;;;;;;;;19.23;31.37;100895.40;103764;1297;61355;-83
2024/03/11 04:40:19;;;;;;;;;;;;;;;19.23;31.51;100889.84;103463;1297;61376;-84
2024/03/11 04:42:44;;;;;;;;;;;;;;;19.23;31.52;100888.61;103417;1304;61396;-83
2024/03/11 04:45:10;;;;;;;;;;;;;;;19.23;31.38;100893.44;103444;1297;61400;-83
2024/03/11 04:47:37;;;;;;;;;;;;;;;19.22;31.56;100901.82;103386;1297;61348;-83
2024/03/11 04:50:03;;;;;;;;;;;;;;;19.23;31.42;100906.44;103440;1297;61284;-85
2024/03/11 04:52:28;;;;;;;;;;;;;;;19.22;31.56;100908.45;103664;1297;61380;-83
2024/03/11 04:54:55;;;;;;;;;;;;;;;19.23;31.41;100911.07;103563;1297;61408;-83
2024/03/11 04:57:22;;;;;;;;;;;;;;;19.23;31.45;100909.33;103663;1297;60509;-83
2024/03/11 04:59:57;;;;;;;;;;;;;;;19.22;31.55;100899.18;103756;1296;61428;-84
2024/03/11 05:02:23;;;;;;;;;;;;;;;19.23;31.55;100895.04;103592;1297;72730;-84
2024/03/11 05:04:48;;;;;;;;;;;;;;;19.22;31.58;100898.44;103488;1297;61454;-83
2024/03/11 05:07:14;;;;;;;;;;;;;;;19.22;31.51;100905.41;103862;1297;61349;-83
2024/03/11 05:09:40;;;;;;;;;;;;;;;19.22;31.55;100904.91;103740;1297;61399;-83
2024/03/11 05:12:06;;;;;;;;;;;;;;;19.22;31.43;100909.55;103699;1297;61430;-83
2024/03/11 05:14:31;;;;;;;;;;;;;;;19.22;31.49;100907.57;103804;1297;72468;-83
2024/03/11 05:16:57;;;;;;;;;;;;;;;19.22;31.45;100904.73;105273;1297;59406;-82
2024/03/11 05:19:23;;;;;;;;;;;;;;;19.22;31.62;100898.10;103545;1297;61332;-82
2024/03/11 05:21:48;;;;;;;;;;;;;;;19.24;31.70;100896.39;102907;1296;61786;-82
2024/03/11 05:24:14;;;;;;;;;;;;;;;19.25;31.57;100897.20;103053;1297;61345;-82
2024/03/11 05:26:40;;;;;;;;;;;;;;;19.28;31.51;100901.89;103087;1297;72554;-84
2024/03/11 05:29:06;;;;;;;;;;;;;;;19.30;31.56;100900.85;104166;1296;61414;-82
2024/03/11 05:31:32;;;;;;;;;;;;;;;19.32;31.51;100897.36;104588;1297;61264;-82
2024/03/11 05:33:57;;;;;;;;;;;;;;;19.33;31.63;100896.71;103394;1298;61426;-82
2024/03/11 05:36:23;;;;;;;;;;;;;;;19.34;31.61;100896.30;103746;1296;61403;-83
2024/03/11 05:38:48;;;;;;;;;;;;;;;19.35;31.60;100901.45;103730;1297;61431;-82
2024/03/11 05:41:14;;;;;;;;;;;;;;;19.35;31.55;100900.88;104263;1297;74368;-82
2024/03/11 05:43:40;;;;;;;;;;;;;;;19.35;31.45;100900.55;104054;1297;61240;-81
2024/03/11 05:46:08;;;;;;;;;;;;;;;19.34;31.55;100903.79;104457;1296;61253;-81
2024/03/11 05:48:38;;;;;;;;;;;;;;;19.33;31.42;100915.80;104824;1297;59946;-82
2024/03/11 05:51:05;;;;;;;;;;;;;;;19.32;31.49;100926.23;104563;1296;74245;-82
2024/03/11 05:53:30;;;;;;;;;;;;;;;19.31;31.39;100925.38;103803;1297;61415;-84
2024/03/11 05:55:56;;;;;;;;;;;;;;;19.30;31.61;100925.30;104337;1297;61413;-83
2024/03/11 05:58:26;;;;;;;;;;;;;;;19.29;31.45;100931.26;104222;1297;61344;-81
2024/03/11 06:00:56;;;;;;;;;;;;;;;19.29;31.46;100941.09;104514;1297;74434;-82
2024/03/11 06:03:22;;;;;;;;;;;;;;;19.28;31.59;100938.45;104505;1297;63379;-82
2024/03/11 06:05:48;;;;;;;;;;;;;;;19.27;31.51;100927.77;104724;1297;59913;-82
2024/03/11 06:08:16;;;;;;;;;;;;;;;19.27;31.59;100920.13;105452;1296;60042;-82
2024/03/11 06:10:42;;;;;;;;;;;;;;;19.25;31.63;100914.86;105442;1297;74742;-82
2024/03/11 06:13:08;;;;;;;;;;;;;;;19.25;31.70;100906.84;105209;1297;59087;-82
2024/03/11 06:15:34;;;;;;;;;;;;;;;19.26;31.63;100905.73;105244;1302;60065;-83
2024/03/11 06:18:01;;;;;;;;;;;;;;;19.26;31.58;100910.36;105422;1297;61414;-82
2024/03/11 06:20:26;;;;;;;;;;;;;;;19.26;31.69;100911.59;105401;1297;61207;-80
2024/03/11 06:22:52;;;;;;;;;;;;;;;19.27;31.81;100912.09;104961;1297;61408;-80
2024/03/11 06:25:20;;;;;;;;;;;;;;;19.28;31.73;100913.27;103745;1297;61395;-82
2024/03/11 06:27:48;;;;;;;;;;;;;;;19.30;31.78;100917.95;104363;1297;61432;-80
2024/03/11 06:30:13;;;;;;;;;;;;;;;19.34;31.69;100922.58;103605;1297;61258;-81
2024/03/11 06:32:40;;;;;;;;;;;;;;;19.37;31.78;100921.27;103699;1297;61425;-82
2024/03/11 06:35:07;;;;;;;;;;;;;;;19.41;31.81;100920.30;103763;1297;61241;-82
2024/03/11 06:37:33;;;;;;;;;;;;;;;19.45;31.67;100919.36;103612;1301;61418;-80
2024/03/11 06:39:58;;;;;;;;;;;;;;;19.49;31.79;100928.06;103662;1298;61495;-79
2024/03/11 06:42:25;;;;;;;;;;;;;;;19.51;31.67;100931.27;103440;1301;61942;-79
2024/03/11 06:44:51;;;;;;;;;;;;;;;19.54;31.66;100938.42;103030;1297;61403;-81
2024/03/11 06:47:16;;;;;;;;;;;;;;;19.57;31.80;100947.18;103325;1297;61685;-82
2024/03/11 06:49:42;;;;;;;;;;;;;;;19.59;31.75;100952.23;103626;1297;60200;-82
2024/03/11 06:52:09;;;;;;;;;;;;;;;19.61;31.79;100955.52;103933;1303;74251;-81
2024/03/11 06:54:38;;;;;;;;;;;;;;;19.61;31.72;100959.60;104202;1296;61522;-81
2024/03/11 06:57:05;;;;;;;;;;;;;;;19.59;31.82;100960.41;104746;1297;61302;-82
2024/03/11 06:59:31;;;;;;;;;;;;;;;19.53;31.97;100965.26;105034;1297;72661;-81
2024/03/11 07:01:57;;;;;;;;;;;;;;;19.51;32.32;100960.79;104801;1297;59537;-81
2024/03/11 07:04:22;;;;;;;;;;;;;;;19.50;32.40;100959.04;104125;1298;59379;-81
2024/03/11 07:06:48;;;;;;;;;;;;;;;19.49;32.48;100957.34;104430;1297;60301;-79
2024/03/11 07:09:15;;;;;;;;;;;;;;;19.48;32.51;100957.39;103938;1298;60581;-83
2024/03/11 07:11:42;;;;;;;;;;;;;;;19.46;32.57;100958.90;104805;1296;61371;-81
2024/03/11 07:14:13;;;;;;;;;;;;;;;19.37;32.45;100955.71;104000;1297;59357;-80
2024/03/11 07:16:43;;;;;;;;;;;;;;;19.32;32.49;100951.42;104029;1297;61271;-81
2024/03/11 07:19:12;;;;;;;;;;;;;;;19.30;32.63;100949.59;103805;1297;72410;-80
2024/03/11 07:21:38;;;;;;;;;;;;;;;19.28;32.55;100954.67;104230;1298;60324;-78
2024/03/11 07:24:05;;;;;;;;;;;;;;;19.24;32.54;100959.18;104068;1297;59458;-81
2024/03/11 07:26:31;;;;;;;;;;;;;;;19.22;32.67;100956.98;103775;1297;61310;-82
2024/03/11 07:28:56;;;;;;;;;;;;;;;19.24;32.55;100955.95;104205;1297;61273;-81
2024/03/11 07:31:22;;;;;;;;;;;;;;;19.27;32.68;100958.64;104248;1298;60068;-82
2024/03/11 07:33:48;;;;;;;;;;;;;;;19.31;32.55;100964.27;105438;1296;59846;-80
2024/03/11 07:36:15;;;;;;;;;;;;;;;19.35;32.62;100960.51;105302;1302;58664;-81
2024/03/11 07:38:41;;;;;;;;;;;;;;;19.39;32.69;100954.19;105207;1296;60086;-81
2024/03/11 07:41:08;;;;;;;;;;;;;;;19.42;32.59;100954.70;104897;1296;61259;-82
2024/03/11 07:43:34;;;;;;;;;;;;;;;19.46;32.61;100959.98;104856;1297;61323;-82
2024/03/11 07:46:03;;;;;;;;;;;;;;;19.49;32.67;100963.00;104927;1297;59843;-82
2024/03/11 07:48:29;;;;;;;;;;;;;;;19.52;32.53;100959.25;105100;1297;59936;-83
2024/03/11 07:50:55;;;;;;;;;;;;;;;19.55;32.61;100955.84;104636;1297;61314;-80
2024/03/11 07:53:20;;;;;;;;;;;;;;;19.56;32.58;100953.83;103662;1298;63250;-82
2024/03/11 07:55:48;;;;;;;;;;;;;;;19.54;32.71;100958.06;103793;1296;62358;-83
2024/03/11 07:58:14;;;;;;;;;;;;;;;19.43;32.89;100952.68;104060;1297;59327;-81
2024/03/11 08:00:41;;;;;;;;;;;;;;;19.37;33.10;100944.64;104135;1297;61369;-81
2024/03/11 08:03:06;;;;;;;;;;;;;;;19.40;33.34;100935.17;104898;1298;61311;-82
2024/03/11 08:05:34;;;;;;;;;;;;;;;19.44;33.56;100938.52;104536;1296;61485;-82
2024/03/11 08:07:59;;;;;;;;;;;;;;;19.48;33.39;100944.55;104468;1302;61395;-82
2024/03/11 08:10:28;;;;;;;;;;;;;;;19.51;33.63;100942.54;104622;1296;61411;-82
2024/03/11 08:12:55;;;;;;;;;;;;;;;19.53;33.65;100941.85;104445;1297;74447;-82
2024/03/11 08:15:20;;;;;;;;;;;;;;;19.50;33.54;100934.95;104688;1295;62069;-82
2024/03/11 08:17:47;;;;;;;;;;;;;;;19.45;33.72;100934.16;104401;1296;61318;-81
2024/03/11 08:20:20;;;;;;;;;;;;;;;19.45;33.84;100935.80;104227;1298;61220;-82
2024/03/11 08:22:47;;;;;;;;;;;;;;;19.45;33.70;100933.86;104511;1298;74457;-82
2024/03/11 08:25:17;;;;;;;;;;;;;;;19.44;33.71;100931.73;104395;1297;61742;-81
2024/03/11 08:27:43;;;;;;;;;;;;;;;19.44;33.76;100932.08;104342;1297;60242;-82
2024/03/11 08:30:11;;;;;;;;;;;;;;;19.46;33.72;100935.58;104332;1295;61401;-81
2024/03/11 08:32:38;;;;;;;;;;;;;;;19.47;33.83;100934.04;104315;1297;74407;-81
2024/03/11 08:35:04;;;;;;;;;;;;;;;19.50;33.79;100931.74;104512;1297;61420;-80
2024/03/11 08:37:30;;;;;;;;;;;;;;;19.53;33.74;100930.30;104498;1298;61427;-80
2024/03/11 08:39:56;;;;;;;;;;;;;;;19.56;33.77;100930.09;104495;1297;61283;-81
2024/03/11 08:42:21;;;;;;;;;;;;;;;19.59;33.79;100933.45;104058;1296;61315;-82
2024/03/11 08:44:53;;;;;;;;;;;;;;;19.63;33.88;100940.95;104610;1297;61380;-83
2024/03/11 08:47:19;;;;;;;;;;;;;;;19.66;33.92;100960.36;104279;1298;61184;-82
2024/03/11 08:49:44;;;;;;;;;;;;;;;19.69;34.01;100974.65;104042;1298;61420;-81
2024/03/11 08:52:12;;;;;;;;;;;;;;;19.71;33.94;100985.77;104182;1302;61344;-81
2024/03/11 08:54:43;;;;;;;;;;;;;;;19.73;34.03;100986.32;104979;1297;60070;-81
2024/03/11 08:57:10;;;;;;;;;;;;;;;19.68;34.09;100975.23;104771;1296;60038;-81
2024/03/11 08:59:36;;;;;;;;;;;;;;;19.58;34.05;100967.26;104470;1300;61243;-82
2024/03/11 09:02:02;;;;;;;;;;;;;;;19.59;34.31;100969.17;104509;1297;74421;-82
2024/03/11 09:04:30;;;;;;;;;;;;;;;19.62;34.55;100980.25;104176;1296;61374;-81
2024/03/11 09:06:57;;;;;;;;;;;;;;;19.68;34.79;100996.15;104074;1296;61179;-82
2024/03/11 09:09:26;;;;;;;;;;;;;;;19.72;35.11;100995.52;104234;1301;72274;-83
2024/03/11 09:11:56;;;;;;;;;;;;;;;19.73;35.19;100987.22;104112;1297;74071;-83
2024/03/11 09:14:25;;;;;;;;;;;;;;;19.71;35.19;100981.82;104128;1297;61298;-83
2024/03/11 09:16:54;;;;;;;;;;;;;;;19.70;35.03;100976.68;104008;1296;61330;-81
2024/03/11 09:19:21;;;;;;;;;;;;;;;19.69;35.06;100968.73;104027;1300;72441;-83
2024/03/11 09:21:49;;;;;;;;;;;;;;;19.69;35.16;100960.55;104169;1301;59358;-81
2024/03/11 09:24:16;;;;;;;;;;;;;;;19.70;35.04;100950.98;104418;1300;61394;-83
2024/03/11 09:26:41;;;;;;;;;;;;;;;19.72;34.94;100935.71;104519;1297;59406;-81
2024/03/11 09:29:09;;;;;;;;;;;;;;;19.73;35.09;100930.08;104634;1297;61063;-82
2024/03/11 09:31:35;;;;;;;;;;;;;;;19.71;35.08;100932.36;104490;1299;75491;-82
2024/03/11 09:34:03;;;;;;;;;;;;;;;19.69;35.08;100934.48;104459;1297;61172;-82
2024/03/11 09:36:31;;;;;;;;;;;;;;;19.68;35.19;100935.27;104361;1300;61454;-83
2024/03/11 09:38:57;;;;;;;;;;;;;;;19.67;35.26;100928.88;104431;1296;72243;-81
2024/03/11 09:41:22;;;;;;;;;;;;;;;19.69;35.34;100933.79;104534;1297;59200;-81
2024/03/11 09:43:51;;;;;;;;;;;;;;;19.70;35.45;100935.64;104366;1297;59387;-83
2024/03/11 09:46:20;;;;;;;;;;;;;;;19.73;35.45;100931.02;104261;1296;60103;-81
2024/03/11 09:48:55;;;;;;;;;;;;;;;19.75;35.55;100934.42;104340;1296;71577;-81
2024/03/11 09:51:22;;;;;;;;;;;;;;;19.76;35.52;100939.02;104550;1300;74420;-81
2024/03/11 09:53:52;;;;;;;;;;;;;;;19.65;35.37;100949.89;104300;1297;61289;-80
2024/03/11 09:56:21;;;;;;;;;;;;;;;19.44;35.59;100952.79;104112;1297;61327;-80
2024/03/11 09:58:51;;;;;;;;;;;;;;;19.27;35.83;100949.77;103900;1296;72269;-82
2024/03/11 10:01:17;;;;;;;;;;;;;;;19.01;35.79;100949.52;104600;1297;75802;-82
2024/03/11 10:03:42;;;;;;;;;;;;;;;18.77;36.16;100951.80;104655;1297;60070;-82
2024/03/11 10:06:08;;;;;;;;;;;;;;;18.59;36.48;100952.84;104658;1297;61266;-82
2024/03/11 10:08:35;;;;;;;;;;;;;;;18.47;36.73;100947.11;104751;1303;59820;-82
2024/03/11 10:11:08;;;;;;;;;;;;;;;18.50;36.86;100941.63;104857;1297;60004;-81
2024/03/11 10:13:36;;;;;;;;;;;;;;;18.44;36.97;100939.98;104861;1297;60174;-82
2024/03/11 10:16:37;;;;;;;;;;;;;;;;;;;;;
2024/03/11 10:19:11;;;;;;;;;;;;;;;18.29;37.28;100930.15;104494;1296;72335;-81
2024/03/11 10:21:38;;;;;;;;;;;;;;;18.36;37.52;100926.91;104041;1298;74619;-79
2024/03/11 10:24:04;;;;;;;;;;;;;;;18.49;37.52;100923.69;103482;1296;61365;-80
2024/03/11 10:26:42;;;;;;;;;;;;;;;18.61;37.53;100918.13;103552;1300;61027;-81
2024/03/11 10:29:08;;;;;;;;;;;;;;;18.76;37.36;100906.54;103736;1300;72541;-83
2024/03/11 10:31:35;;;;;;;;;;;;;;;18.87;37.38;100902.52;103782;1301;60197;-81
2024/03/11 10:34:10;;;;;;;;;;;;;;;18.98;37.34;100904.40;104005;1297;59319;-80
2024/03/11 10:36:39;;;;;;;;;;;;;;;19.08;37.24;100897.01;104620;1296;61542;-81
2024/03/11 10:39:17;;;;;;;;;;;;;;;19.14;37.16;100896.27;105093;1297;72491;-82
2024/03/11 10:42:01;;;;;;;;;;;;;;;19.15;37.23;100896.62;105475;1289;74507;-81
2024/03/11 10:44:29;;;;;;;;;;;;;;;19.08;37.25;100895.23;104585;1297;60000;-84
2024/03/11 10:47:02;;;;;;;;;;;;;;;19.07;37.49;100890.85;104401;1300;61076;-83
2024/03/11 10:49:30;;;;;;;;;;;;;;;19.13;37.59;100884.40;104705;1296;71453;-85
2024/03/11 10:51:58;;;;;;;;;;;;;;;19.18;37.60;100879.97;104721;1297;59233;-84
2024/03/11 10:54:23;;;;;;;;;;;;;;;19.20;37.63;100876.64;104738;1300;61180;-84
2024/03/11 10:56:52;;;;;;;;;;;;;;;19.25;37.54;100876.14;104725;1300;60361;-83
2024/03/11 10:59:26;;;;;;;;;;;;;;;19.32;37.74;100879.88;104843;1297;72640;-90
2024/03/11 11:02:06;;;;;;;;;;;;;;;19.35;37.68;100885.38;104917;1301;75035;-80
2024/03/11 11:04:33;;;;;;;;;;;;;;;19.26;37.79;100884.85;104803;1297;59856;-80
2024/03/11 11:06:59;;;;;;;;;;;;;;;19.12;37.64;100889.27;104349;1297;61249;-80
2024/03/11 11:09:27;;;;;;;;;;;;;;;18.95;37.90;100889.56;104382;1299;61090;-81
2024/03/11 11:11:53;;;;;;;;;;;;;;;18.92;37.86;100889.23;104763;1297;73404;-80
2024/03/11 11:14:18;;;;;;;;;;;;;;;18.84;37.96;100891.12;103874;1303;61367;-82
2024/03/11 11:16:45;;;;;;;;;;;;;;;18.80;38.12;100888.54;103674;1297;61404;-83
2024/03/11 11:19:23;;;;;;;;;;;;;;;18.86;38.19;100872.60;104363;1305;61301;-81
2024/03/11 11:21:52;;;;;;;;;;;;;;;18.98;38.27;100865.33;104345;1297;74537;-81
2024/03/11 11:24:29;;;;;;;;;;;;;;;19.08;38.23;100857.77;103852;1297;61306;-81
2024/03/11 11:26:56;;;;;;;;;;;;;;;19.18;38.27;100846.83;103145;1298;61411;-81
2024/03/11 11:29:29;;;;;;;;;;;;;;;19.26;38.16;100849.18;103372;1297;74456;-82
2024/03/11 11:32:05;;;;;;;;;;;;;;;19.33;38.20;100852.12;103211;1302;75616;-82
2024/03/11 11:34:49;;;;;;;;;;;;;;;19.39;38.18;100854.42;103257;1297;61322;-83
2024/03/11 11:37:23;;;;;;;;;;;;;;;19.45;38.15;100856.52;103598;1297;61273;-81
2024/03/11 11:39:52;;;;;;;;;;;;;;;19.51;38.16;100862.55;103199;1300;72333;-81
2024/03/11 11:42:34;;;;;;;;;;;;;;;19.56;38.03;100859.02;103618;1297;74627;-81
2024/03/11 11:45:06;;;;;;;;;;;;;;;19.61;37.99;100858.92;103525;1297;61375;-82
2024/03/11 11:47:32;;;;;;;;;;;;;;;19.64;38.05;100855.00;103970;1297;61329;-83
2024/03/11 11:49:59;;;;;;;;;;;;;;;19.68;38.18;100853.63;103111;1302;62573;-82
2024/03/11 11:52:27;;;;;;;;;;;;;;;19.71;38.06;100845.80;103589;1297;74368;-82
2024/03/11 11:54:53;;;;;;;;;;;;;;;19.73;38.02;100845.30;103899;1297;61212;-82
2024/03/11 11:57:21;;;;;;;;;;;;;;;19.73;38.13;100841.16;104375;1301;59326;-82
2024/03/11 11:59:57;;;;;;;;;;;;;;;19.69;38.15;100839.48;104196;1303;72485;-81
2024/03/11 12:02:28;;;;;;;;;;;;;;;19.62;38.11;100829.71;105017;1296;73398;-82
2024/03/11 12:04:54;;;;;;;;;;;;;;;19.53;38.16;100826.56;104538;1301;61450;-80
2024/03/11 12:07:23;;;;;;;;;;;;;;;19.37;38.29;100828.65;104600;1297;61371;-84
2024/03/11 12:09:50;;;;;;;;;;;;;;;19.25;38.38;100825.30;104451;1297;71533;-81
2024/03/11 12:12:28;;;;;;;;;;;;;;;19.22;38.40;100838.50;104618;1297;75470;-80
2024/03/11 12:14:55;;;;;;;;;;;;;;;19.09;38.60;100847.73;104533;1297;59195;-80
2024/03/11 12:17:21;;;;;;;;;;;;;;;19.01;38.55;100849.61;104079;1297;61356;-81
2024/03/11 12:19:48;;;;;;;;;;;;;;;19.07;38.76;100852.98;104104;1297;59643;-82
2024/03/11 12:22:15;;;;;;;;;;;;;;;19.16;38.70;100849.44;103769;1298;74268;-81
2024/03/11 12:24:42;;;;;;;;;;;;;;;19.25;38.73;100851.89;103897;1297;61400;-82
2024/03/11 12:27:14;;;;;;;;;;;;;;;19.32;38.64;100851.64;103823;1295;61338;-80
2024/03/11 12:29:41;;;;;;;;;;;;;;;19.30;38.55;100849.30;103585;1301;72990;-82